createdAt,value
2023-01-28T00:01:40.921Z,2.48
2023-01-28T00:07:12.529Z,2.62
2023-01-28T00:12:44.285Z,2.6
2023-01-28T00:18:15.873Z,2.66
2023-01-28T00:23:47.359Z,2.72
2023-01-28T00:29:19.790Z,2.72
2023-01-28T00:34:51.101Z,2.74
2023-01-28T00:40:22.518Z,2.76
2023-01-28T00:45:54.240Z,2.76
2023-01-28T00:51:25.995Z,2.69
2023-01-28T00:57:04.379Z,2.71
2023-01-28T01:02:36.153Z,2.77
2023-01-28T01:08:07.777Z,2.78
2023-01-28T01:13:39.569Z,2.79
2023-01-28T01:19:11.612Z,2.75
2023-01-28T01:24:42.777Z,2.76
2023-01-28T01:30:14.738Z,2.86
2023-01-28T01:35:46.497Z,2.81
2023-01-28T01:41:17.953Z,2.78
2023-01-28T01:46:49.679Z,2.74
2023-01-28T01:52:21.425Z,2.74
2023-01-28T01:57:57.881Z,2.7
2023-01-28T02:03:29.700Z,2.72
2023-01-28T02:09:01.191Z,2.77
2023-01-28T02:14:32.753Z,2.79
2023-01-28T02:20:04.510Z,2.8
2023-01-28T02:25:36.146Z,2.75
2023-01-28T02:31:08.203Z,2.76
2023-01-28T02:36:39.609Z,2.79
2023-01-28T02:42:11.309Z,2.83
2023-01-28T02:47:43.030Z,2.84
2023-01-28T02:53:15.090Z,2.86
2023-01-28T02:58:53.072Z,2.78
2023-01-28T03:04:24.660Z,2.74
2023-01-28T03:09:56.612Z,2.53
2023-01-28T03:15:28.362Z,2.78
2023-01-28T03:20:59.777Z,2.81
2023-01-28T03:26:31.821Z,2.64
2023-01-28T03:32:03.247Z,2.76
2023-01-28T03:37:34.914Z,2.61
2023-01-28T03:43:06.668Z,2.74
2023-01-28T03:48:38.630Z,2.7
2023-01-28T03:54:10.267Z,2.63
2023-01-28T03:59:46.397Z,2.61
2023-01-28T04:05:18.104Z,2.6
2023-01-28T04:10:50.087Z,2.76
2023-01-28T04:16:21.427Z,2.8
2023-01-28T04:21:53.135Z,2.8
2023-01-28T04:27:24.804Z,2.87
2023-01-28T04:32:56.839Z,2.86
2023-01-28T04:38:28.255Z,2.84
2023-01-28T04:43:59.948Z,2.83
2023-01-28T04:49:31.712Z,2.87
2023-01-28T04:55:03.755Z,2.88
2023-01-28T05:00:39.609Z,2.89
2023-01-28T05:06:11.295Z,2.96
2023-01-28T05:11:43.359Z,2.96
2023-01-28T05:17:14.828Z,2.91
2023-01-28T05:22:46.980Z,2.92
2023-01-28T05:28:18.201Z,2.89
2023-01-28T05:33:50.140Z,2.49
2023-01-28T05:39:21.641Z,2.42
2023-01-28T05:44:53.641Z,2.87
2023-01-28T05:50:25.991Z,2.89
2023-01-28T05:55:57.109Z,2.71
2023-01-28T06:01:32.935Z,2.86
2023-01-28T06:07:04.700Z,2.91
2023-01-28T06:12:36.643Z,2.92
2023-01-28T06:18:08.108Z,2.91
2023-01-28T06:23:40.042Z,2.94
2023-01-28T06:29:11.811Z,2.88
2023-01-28T06:34:43.214Z,2.86
2023-01-28T06:40:16.018Z,3.02
2023-01-28T06:45:46.993Z,3.02
2023-01-28T06:51:18.623Z,3.03
2023-01-28T06:56:50.138Z,2.92
2023-01-28T07:02:27.780Z,2.99
2023-01-28T07:07:57.969Z,2.99
2023-01-28T07:13:29.728Z,2.95
2023-01-28T07:19:01.763Z,3.04
2023-01-28T07:24:33.502Z,3.1
2023-01-28T07:30:05.124Z,3.03
2023-01-28T07:35:36.907Z,3.1
2023-01-28T07:41:08.814Z,3.05
2023-01-28T07:46:40.131Z,3.08
2023-01-28T07:52:12.069Z,3.1
2023-01-28T07:57:43.915Z,3.12
2023-01-28T08:03:21.761Z,3.21
2023-01-28T08:08:53.512Z,3.24
2023-01-28T08:14:25.173Z,3.24
2023-01-28T08:19:56.955Z,3.33
2023-01-28T08:25:28.944Z,3.38
2023-01-28T08:31:01.297Z,3.47
2023-01-28T08:36:32.100Z,3.54
2023-01-28T08:42:04.164Z,3.37
2023-01-28T08:47:35.812Z,3.38
2023-01-28T08:53:07.625Z,3.45
2023-01-28T08:58:39.248Z,3.43
2023-01-28T09:04:17.441Z,3.6
2023-01-28T09:09:48.900Z,3.64
2023-01-28T09:15:20.575Z,3.76
2023-01-28T09:20:52.345Z,3.65
2023-01-28T09:26:24.305Z,3.69
2023-01-28T09:31:55.756Z,3.64
2023-01-28T09:37:27.463Z,3.84
2023-01-28T09:42:59.856Z,3.59
2023-01-28T09:48:30.934Z,3.78
2023-01-28T09:54:02.697Z,3.96
2023-01-28T09:59:34.425Z,3.86
2023-01-28T10:05:12.931Z,3.97
2023-01-28T10:10:44.721Z,3.99
2023-01-28T10:16:16.352Z,3.8
2023-01-28T10:21:48.143Z,3.83
2023-01-28T10:27:19.873Z,3.86
2023-01-28T10:32:51.884Z,4.08
2023-01-28T10:38:22.972Z,3.82
2023-01-28T10:43:55.004Z,3.84
2023-01-28T10:49:26.695Z,3.84
2023-01-28T10:54:59.293Z,3.6
2023-01-28T11:00:30.034Z,3.35
2023-01-28T11:06:06.211Z,3.73
2023-01-28T11:11:37.709Z,3.78
2023-01-28T11:17:09.423Z,3.7
2023-01-28T11:22:41.893Z,3.74
2023-01-28T11:28:12.834Z,3.76
2023-01-28T11:33:44.741Z,3.85
2023-01-28T11:39:16.320Z,3.97
2023-01-28T11:44:49.034Z,3.81
2023-01-28T11:50:20.095Z,3.46
2023-01-28T11:55:51.685Z,3.53
2023-01-28T12:01:23.205Z,3.41
2023-01-28T12:06:59.548Z,3.22
2023-01-28T12:12:31.137Z,3.63
2023-01-28T12:18:02.864Z,3.64
2023-01-28T12:23:34.581Z,3.59
2023-01-28T12:29:06.702Z,3.61
2023-01-28T12:34:39.859Z,3.47
2023-01-28T12:40:11.439Z,3.84
2023-01-28T12:45:43.009Z,3.61
2023-01-28T12:51:14.695Z,3.37
2023-01-28T12:56:46.420Z,3.31
2023-01-28T13:02:18.162Z,3.45
2023-01-28T13:07:54.595Z,3.42
2023-01-28T13:13:27.125Z,3.37
2023-01-28T13:18:57.862Z,3.26
2023-01-28T13:24:29.487Z,3.35
2023-01-28T13:30:02.003Z,3.17
2023-01-28T13:35:33.147Z,3.18
2023-01-28T13:41:04.909Z,3.25
2023-01-28T13:46:37.248Z,3.28
2023-01-28T13:52:08.268Z,3.4
2023-01-28T13:57:39.788Z,3.19
2023-01-28T14:03:11.820Z,3.4
2023-01-28T14:08:49.666Z,3.37
2023-01-28T14:14:21.410Z,3.39
2023-01-28T14:19:53.398Z,3.32
2023-01-28T14:25:24.905Z,3.23
2023-01-28T14:30:56.678Z,3.41
2023-01-28T14:36:28.708Z,3.48
2023-01-28T14:42:00.129Z,3.48
2023-01-28T14:47:32.032Z,3.66
2023-01-28T14:53:03.787Z,3.42
2023-01-28T14:58:35.686Z,3.61
2023-01-28T15:04:07.240Z,3.53
2023-01-28T15:09:45.432Z,3.65
2023-01-28T15:15:17.498Z,3.55
2023-01-28T15:20:49.200Z,3.64
2023-01-28T15:26:20.458Z,3.61
2023-01-28T15:31:52.454Z,3.6
2023-01-28T15:37:24.076Z,3.55
2023-01-28T15:42:55.926Z,3.62
2023-01-28T15:48:27.333Z,3.59
2023-01-28T15:53:59.096Z,3.62
2023-01-28T15:59:30.907Z,3.57
2023-01-28T16:05:02.597Z,3.48
2023-01-28T16:10:38.869Z,3.43
2023-01-28T16:16:10.474Z,3.17
2023-01-28T16:21:42.600Z,3.34
2023-01-28T16:27:13.884Z,3.2
2023-01-28T16:32:45.651Z,3.24
2023-01-28T16:38:17.588Z,3.29
2023-01-28T16:43:49.069Z,3.12
2023-01-28T16:49:21.487Z,3.39
2023-01-28T16:54:52.504Z,3.16
2023-01-28T17:00:24.209Z,3.39
2023-01-28T17:05:57.015Z,3.36
2023-01-28T17:11:32.322Z,3.48
2023-01-28T17:17:03.902Z,3.47
2023-01-28T17:22:35.612Z,3.46
2023-01-28T17:28:07.295Z,3.3
2023-01-28T17:33:38.982Z,3.27
2023-01-28T17:39:11.012Z,3.29
2023-01-28T17:44:42.619Z,3.19
2023-01-28T17:50:14.156Z,3.24
2023-01-28T17:55:45.901Z,3.26
2023-01-28T18:01:17.818Z,3.31
2023-01-28T18:06:49.340Z,3.3
2023-01-28T18:12:25.522Z,3.38
2023-01-28T18:17:57.244Z,3.36
2023-01-28T18:23:29.935Z,3.39
2023-01-28T18:29:01.627Z,3.36
2023-01-28T18:34:33.399Z,3.35
2023-01-28T18:40:05.104Z,3.41
2023-01-28T18:45:36.884Z,3.32
2023-01-28T18:51:14.725Z,3.26
2023-01-28T18:56:40.466Z,3.25
2023-01-28T19:02:12.285Z,3.24
2023-01-28T19:07:43.927Z,3.2
2023-01-28T19:13:20.057Z,3.19
2023-01-28T19:18:51.526Z,3.22
2023-01-28T19:24:23.527Z,3.22
2023-01-28T19:29:55.237Z,3.17
2023-01-28T19:35:26.928Z,3.15
2023-01-28T19:40:59.208Z,3.17
2023-01-28T19:46:30.252Z,3.2
2023-01-28T19:52:01.960Z,3.03
2023-01-28T19:57:33.841Z,3.05
2023-01-28T20:03:05.361Z,3.08
2023-01-28T20:08:37.113Z,3.1
2023-01-28T20:14:13.264Z,3.04
2023-01-28T20:19:45.213Z,2.57
2023-01-28T20:25:17.198Z,2.76
2023-01-28T20:30:49.372Z,2.67
2023-01-28T20:36:20.140Z,2.74
2023-01-28T20:41:52.110Z,2.77
2023-01-28T20:47:23.613Z,2.76
2023-01-28T20:52:55.348Z,2.68
2023-01-28T20:58:27.028Z,2.51
2023-01-28T21:03:58.734Z,2.72
2023-01-28T21:09:30.851Z,2.62
2023-01-28T21:15:08.664Z,2.62
2023-01-28T21:20:40.890Z,2.64
2023-01-28T21:26:12.057Z,2.57
2023-01-28T21:31:44.552Z,2.58
2023-01-28T21:37:15.662Z,2.29
2023-01-28T21:42:47.197Z,2.61
2023-01-28T21:48:19.143Z,2.35
2023-01-28T21:53:51.250Z,2.31
2023-01-28T21:59:22.569Z,2.5
2023-01-28T22:04:54.412Z,2.59
2023-01-28T22:10:26.119Z,2.66
2023-01-28T22:16:03.981Z,2.4
2023-01-28T22:21:35.891Z,2.54
2023-01-28T22:27:07.697Z,2.36
2023-01-28T22:32:39.146Z,2.35
2023-01-28T22:38:10.849Z,2.43
2023-01-28T22:43:42.794Z,2.19
2023-01-28T22:49:14.341Z,2.22
2023-01-28T22:54:46.133Z,2.36
2023-01-28T23:00:18.324Z,2.25
2023-01-28T23:05:49.813Z,2.32
2023-01-28T23:11:21.553Z,2.41
2023-01-28T23:16:57.817Z,2.22
2023-01-28T23:22:29.139Z,2.26
2023-01-28T23:28:01.094Z,2.22
2023-01-28T23:33:32.680Z,2.31
2023-01-28T23:39:04.474Z,2.36
2023-01-28T23:44:36.333Z,2.44
2023-01-28T23:50:08.214Z,2.5
2023-01-28T23:55:39.685Z,2.53
